sensor_id;sensor_type;location;lat;lon;timestamp;P1;durP1;ratioP1;P2;durP2;ratioP2
52354;SDS011;38286;51.156;17.038;2023-02-18T00:01:00;3.75;;;1.13;;
52354;SDS011;38286;51.156;17.038;2023-02-18T00:03:27;3.13;;;1.40;;
52354;SDS011;38286;51.156;17.038;2023-02-18T00:05:53;1.63;;;0.98;;
52354;SDS011;38286;51.156;17.038;2023-02-18T00:08:19;2.92;;;0.90;;
52354;SDS011;38286;51.156;17.038;2023-02-18T00:10:45;3.40;;;0.80;;
52354;SDS011;38286;51.156;17.038;2023-02-18T00:13:11;1.30;;;0.70;;
52354;SDS011;38286;51.156;17.038;2023-02-18T00:15:37;1.58;;;0.60;;
52354;SDS011;38286;51.156;17.038;2023-02-18T00:18:03;2.70;;;0.80;;
52354;SDS011;38286;51.156;17.038;2023-02-18T00:20:30;1.73;;;0.68;;
52354;SDS011;38286;51.156;17.038;2023-02-18T00:22:58;1.23;;;0.50;;
52354;SDS011;38286;51.156;17.038;2023-02-18T00:25:24;2.53;;;0.70;;
52354;SDS011;38286;51.156;17.038;2023-02-18T00:27:49;1.00;;;0.57;;
52354;SDS011;38286;51.156;17.038;2023-02-18T00:30:15;1.63;;;0.70;;
52354;SDS011;38286;51.156;17.038;2023-02-18T00:32:41;1.17;;;0.60;;
52354;SDS011;38286;51.156;17.038;2023-02-18T00:35:07;2.05;;;0.40;;
52354;SDS011;38286;51.156;17.038;2023-02-18T00:37:32;0.60;;;0.50;;
52354;SDS011;38286;51.156;17.038;2023-02-18T00:39:58;1.30;;;0.60;;
52354;SDS011;38286;51.156;17.038;2023-02-18T00:42:24;2.72;;;0.50;;
52354;SDS011;38286;51.156;17.038;2023-02-18T00:44:50;1.60;;;0.60;;
52354;SDS011;38286;51.156;17.038;2023-02-18T00:47:15;7.25;;;0.77;;
52354;SDS011;38286;51.156;17.038;2023-02-18T00:49:41;2.25;;;0.57;;
52354;SDS011;38286;51.156;17.038;2023-02-18T00:52:06;0.93;;;0.43;;
52354;SDS011;38286;51.156;17.038;2023-02-18T00:54:32;3.45;;;0.70;;
52354;SDS011;38286;51.156;17.038;2023-02-18T00:56:58;2.88;;;0.65;;
52354;SDS011;38286;51.156;17.038;2023-02-18T00:59:23;0.60;;;0.60;;
52354;SDS011;38286;51.156;17.038;2023-02-18T01:01:49;1.17;;;0.50;;
52354;SDS011;38286;51.156;17.038;2023-02-18T01:04:15;1.70;;;0.70;;
52354;SDS011;38286;51.156;17.038;2023-02-18T01:06:41;2.65;;;0.70;;
52354;SDS011;38286;51.156;17.038;2023-02-18T01:09:06;2.58;;;0.60;;
52354;SDS011;38286;51.156;17.038;2023-02-18T01:11:32;2.47;;;0.80;;
52354;SDS011;38286;51.156;17.038;2023-02-18T01:13:58;1.10;;;0.60;;
52354;SDS011;38286;51.156;17.038;2023-02-18T01:16:24;1.42;;;0.52;;
52354;SDS011;38286;51.156;17.038;2023-02-18T01:18:50;0.82;;;0.55;;
52354;SDS011;38286;51.156;17.038;2023-02-18T01:21:15;2.90;;;0.70;;
52354;SDS011;38286;51.156;17.038;2023-02-18T01:23:41;1.42;;;0.45;;
52354;SDS011;38286;51.156;17.038;2023-02-18T01:26:07;1.70;;;0.70;;
52354;SDS011;38286;51.156;17.038;2023-02-18T01:28:34;2.75;;;0.70;;
52354;SDS011;38286;51.156;17.038;2023-02-18T01:31:03;3.17;;;0.77;;
52354;SDS011;38286;51.156;17.038;2023-02-18T01:33:31;4.10;;;0.70;;
52354;SDS011;38286;51.156;17.038;2023-02-18T01:35:56;0.80;;;0.60;;
52354;SDS011;38286;51.156;17.038;2023-02-18T01:38:22;2.42;;;0.70;;
52354;SDS011;38286;51.156;17.038;2023-02-18T01:40:50;2.63;;;0.60;;
52354;SDS011;38286;51.156;17.038;2023-02-18T01:43:19;2.38;;;0.50;;
52354;SDS011;38286;51.156;17.038;2023-02-18T01:45:48;1.95;;;0.40;;
52354;SDS011;38286;51.156;17.038;2023-02-18T01:48:33;3.42;;;0.80;;
52354;SDS011;38286;51.156;17.038;2023-02-18T01:51:10;2.47;;;0.50;;
52354;SDS011;38286;51.156;17.038;2023-02-18T01:56:43;4.28;;;0.80;;
52354;SDS011;38286;51.156;17.038;2023-02-18T01:59:16;1.88;;;0.50;;
52354;SDS011;38286;51.156;17.038;2023-02-18T02:01:45;1.42;;;0.65;;
52354;SDS011;38286;51.156;17.038;2023-02-18T02:04:12;2.65;;;0.47;;
52354;SDS011;38286;51.156;17.038;2023-02-18T02:06:37;1.80;;;0.52;;
52354;SDS011;38286;51.156;17.038;2023-02-18T02:09:04;3.25;;;0.65;;
52354;SDS011;38286;51.156;17.038;2023-02-18T02:11:38;5.90;;;0.77;;
52354;SDS011;38286;51.156;17.038;2023-02-18T02:16:43;1.63;;;0.47;;
52354;SDS011;38286;51.156;17.038;2023-02-18T02:30:25;1.75;;;0.60;;
52354;SDS011;38286;51.156;17.038;2023-02-18T02:33:08;1.70;;;0.40;;
52354;SDS011;38286;51.156;17.038;2023-02-18T02:38:39;2.72;;;0.40;;
52354;SDS011;38286;51.156;17.038;2023-02-18T02:43:52;1.10;;;0.35;;
52354;SDS011;38286;51.156;17.038;2023-02-18T02:51:47;2.10;;;0.60;;
52354;SDS011;38286;51.156;17.038;2023-02-18T02:54:20;1.40;;;0.50;;
52354;SDS011;38286;51.156;17.038;2023-02-18T02:57:00;2.43;;;0.63;;
52354;SDS011;38286;51.156;17.038;2023-02-18T02:59:29;1.13;;;0.57;;
52354;SDS011;38286;51.156;17.038;2023-02-18T03:02:00;2.20;;;0.70;;
52354;SDS011;38286;51.156;17.038;2023-02-18T03:04:58;2.42;;;0.60;;
52354;SDS011;38286;51.156;17.038;2023-02-18T03:15:54;1.65;;;0.70;;
52354;SDS011;38286;51.156;17.038;2023-02-18T03:23:44;2.55;;;0.70;;
52354;SDS011;38286;51.156;17.038;2023-02-18T03:26:14;2.63;;;0.52;;
52354;SDS011;38286;51.156;17.038;2023-02-18T03:28:41;3.08;;;0.60;;
52354;SDS011;38286;51.156;17.038;2023-02-18T03:31:08;2.83;;;0.65;;
52354;SDS011;38286;51.156;17.038;2023-02-18T03:33:43;1.42;;;0.60;;
52354;SDS011;38286;51.156;17.038;2023-02-18T03:41:09;2.35;;;0.47;;
52354;SDS011;38286;51.156;17.038;2023-02-18T03:43:35;2.38;;;0.55;;
52354;SDS011;38286;51.156;17.038;2023-02-18T03:46:01;1.23;;;0.50;;
52354;SDS011;38286;51.156;17.038;2023-02-18T03:48:27;3.40;;;0.50;;
52354;SDS011;38286;51.156;17.038;2023-02-18T03:50:53;2.42;;;0.68;;
52354;SDS011;38286;51.156;17.038;2023-02-18T03:53:18;5.68;;;0.80;;
52354;SDS011;38286;51.156;17.038;2023-02-18T03:55:45;4.45;;;0.93;;
52354;SDS011;38286;51.156;17.038;2023-02-18T03:58:11;3.08;;;1.48;;
52354;SDS011;38286;51.156;17.038;2023-02-18T04:00:36;1.27;;;0.55;;
52354;SDS011;38286;51.156;17.038;2023-02-18T04:03:02;4.85;;;0.70;;
52354;SDS011;38286;51.156;17.038;2023-02-18T04:05:28;1.30;;;0.50;;
52354;SDS011;38286;51.156;17.038;2023-02-18T04:07:53;2.13;;;0.75;;
52354;SDS011;38286;51.156;17.038;2023-02-18T04:10:19;4.18;;;0.70;;
52354;SDS011;38286;51.156;17.038;2023-02-18T04:12:45;1.95;;;0.60;;
52354;SDS011;38286;51.156;17.038;2023-02-18T04:15:10;1.92;;;0.60;;
52354;SDS011;38286;51.156;17.038;2023-02-18T04:17:38;3.78;;;0.60;;
52354;SDS011;38286;51.156;17.038;2023-02-18T04:20:04;1.30;;;0.52;;
52354;SDS011;38286;51.156;17.038;2023-02-18T04:22:30;1.92;;;0.50;;
52354;SDS011;38286;51.156;17.038;2023-02-18T04:24:55;2.30;;;0.80;;
52354;SDS011;38286;51.156;17.038;2023-02-18T04:27:21;1.58;;;0.57;;
52354;SDS011;38286;51.156;17.038;2023-02-18T04:29:47;1.30;;;0.50;;
52354;SDS011;38286;51.156;17.038;2023-02-18T04:32:12;2.72;;;0.70;;
52354;SDS011;38286;51.156;17.038;2023-02-18T04:34:38;1.23;;;0.50;;
52354;SDS011;38286;51.156;17.038;2023-02-18T04:37:04;1.60;;;0.55;;
52354;SDS011;38286;51.156;17.038;2023-02-18T04:39:29;1.60;;;0.60;;
52354;SDS011;38286;51.156;17.038;2023-02-18T04:41:55;3.38;;;0.73;;
52354;SDS011;38286;51.156;17.038;2023-02-18T04:44:21;3.17;;;0.80;;
52354;SDS011;38286;51.156;17.038;2023-02-18T04:46:46;1.75;;;0.68;;
52354;SDS011;38286;51.156;17.038;2023-02-18T04:49:12;2.95;;;0.60;;
52354;SDS011;38286;51.156;17.038;2023-02-18T04:51:38;2.83;;;0.63;;
52354;SDS011;38286;51.156;17.038;2023-02-18T04:54:03;2.38;;;0.60;;
52354;SDS011;38286;51.156;17.038;2023-02-18T04:56:29;2.05;;;0.80;;
52354;SDS011;38286;51.156;17.038;2023-02-18T04:58:55;4.55;;;0.63;;
52354;SDS011;38286;51.156;17.038;2023-02-18T05:01:20;4.32;;;0.70;;
52354;SDS011;38286;51.156;17.038;2023-02-18T05:03:46;3.38;;;0.73;;
52354;SDS011;38286;51.156;17.038;2023-02-18T05:06:12;1.58;;;0.70;;
52354;SDS011;38286;51.156;17.038;2023-02-18T05:08:37;3.53;;;0.70;;
52354;SDS011;38286;51.156;17.038;2023-02-18T05:11:06;4.07;;;0.82;;
52354;SDS011;38286;51.156;17.038;2023-02-18T05:13:32;2.17;;;0.70;;
52354;SDS011;38286;51.156;17.038;2023-02-18T05:15:58;4.43;;;0.80;;
52354;SDS011;38286;51.156;17.038;2023-02-18T05:18:24;2.25;;;0.63;;
52354;SDS011;38286;51.156;17.038;2023-02-18T05:20:49;2.33;;;0.50;;
52354;SDS011;38286;51.156;17.038;2023-02-18T05:23:15;2.60;;;0.50;;
52354;SDS011;38286;51.156;17.038;2023-02-18T05:25:42;0.93;;;0.47;;
52354;SDS011;38286;51.156;17.038;2023-02-18T05:28:08;3.25;;;0.70;;
52354;SDS011;38286;51.156;17.038;2023-02-18T05:30:34;1.50;;;0.45;;
52354;SDS011;38286;51.156;17.038;2023-02-18T05:32:59;4.20;;;0.90;;
52354;SDS011;38286;51.156;17.038;2023-02-18T05:35:25;1.48;;;0.68;;
52354;SDS011;38286;51.156;17.038;2023-02-18T05:37:51;4.72;;;0.70;;
52354;SDS011;38286;51.156;17.038;2023-02-18T05:40:16;5.13;;;0.70;;
52354;SDS011;38286;51.156;17.038;2023-02-18T05:42:42;4.53;;;0.60;;
52354;SDS011;38286;51.156;17.038;2023-02-18T05:45:08;3.60;;;0.60;;
52354;SDS011;38286;51.156;17.038;2023-02-18T05:47:34;2.33;;;0.63;;
52354;SDS011;38286;51.156;17.038;2023-02-18T05:49:59;1.30;;;0.75;;
52354;SDS011;38286;51.156;17.038;2023-02-18T05:52:25;1.58;;;0.73;;
52354;SDS011;38286;51.156;17.038;2023-02-18T05:54:50;2.75;;;0.75;;
52354;SDS011;38286;51.156;17.038;2023-02-18T05:57:16;3.60;;;0.70;;
52354;SDS011;38286;51.156;17.038;2023-02-18T05:59:42;2.35;;;0.50;;
52354;SDS011;38286;51.156;17.038;2023-02-18T06:02:08;5.22;;;0.80;;
52354;SDS011;38286;51.156;17.038;2023-02-18T06:04:33;1.77;;;0.73;;
52354;SDS011;38286;51.156;17.038;2023-02-18T06:06:59;3.65;;;0.70;;
52354;SDS011;38286;51.156;17.038;2023-02-18T06:09:24;3.15;;;0.70;;
52354;SDS011;38286;51.156;17.038;2023-02-18T06:11:50;3.83;;;0.50;;
52354;SDS011;38286;51.156;17.038;2023-02-18T06:14:16;3.63;;;0.82;;
52354;SDS011;38286;51.156;17.038;2023-02-18T06:16:42;3.88;;;0.70;;
52354;SDS011;38286;51.156;17.038;2023-02-18T06:19:07;4.28;;;0.90;;
52354;SDS011;38286;51.156;17.038;2023-02-18T06:21:33;4.82;;;0.60;;
52354;SDS011;38286;51.156;17.038;2023-02-18T06:23:59;1.90;;;0.60;;
52354;SDS011;38286;51.156;17.038;2023-02-18T06:26:25;2.97;;;0.60;;
52354;SDS011;38286;51.156;17.038;2023-02-18T06:28:51;2.75;;;0.50;;
52354;SDS011;38286;51.156;17.038;2023-02-18T06:31:16;3.83;;;0.45;;
52354;SDS011;38286;51.156;17.038;2023-02-18T06:33:42;3.50;;;0.75;;
52354;SDS011;38286;51.156;17.038;2023-02-18T06:36:08;3.92;;;0.75;;
52354;SDS011;38286;51.156;17.038;2023-02-18T06:38:37;2.55;;;0.77;;
52354;SDS011;38286;51.156;17.038;2023-02-18T06:41:03;3.00;;;0.65;;
52354;SDS011;38286;51.156;17.038;2023-02-18T06:43:29;1.40;;;0.52;;
52354;SDS011;38286;51.156;17.038;2023-02-18T06:45:55;2.10;;;0.80;;
52354;SDS011;38286;51.156;17.038;2023-02-18T06:48:22;3.35;;;0.70;;
52354;SDS011;38286;51.156;17.038;2023-02-18T06:50:48;1.63;;;0.63;;
52354;SDS011;38286;51.156;17.038;2023-02-18T06:53:14;4.97;;;0.88;;
52354;SDS011;38286;51.156;17.038;2023-02-18T06:55:41;3.05;;;0.70;;
52354;SDS011;38286;51.156;17.038;2023-02-18T06:58:08;6.07;;;0.75;;
52354;SDS011;38286;51.156;17.038;2023-02-18T07:00:34;2.67;;;0.70;;
52354;SDS011;38286;51.156;17.038;2023-02-18T07:03:00;1.92;;;0.57;;
52354;SDS011;38286;51.156;17.038;2023-02-18T07:05:26;3.92;;;0.80;;
52354;SDS011;38286;51.156;17.038;2023-02-18T07:07:52;2.08;;;0.75;;
52354;SDS011;38286;51.156;17.038;2023-02-18T07:10:17;1.75;;;0.70;;
52354;SDS011;38286;51.156;17.038;2023-02-18T07:12:43;4.13;;;0.88;;
52354;SDS011;38286;51.156;17.038;2023-02-18T07:15:10;3.72;;;0.75;;
52354;SDS011;38286;51.156;17.038;2023-02-18T07:17:36;4.70;;;0.82;;
52354;SDS011;38286;51.156;17.038;2023-02-18T07:20:02;3.42;;;0.70;;
52354;SDS011;38286;51.156;17.038;2023-02-18T07:22:29;1.77;;;0.73;;
52354;SDS011;38286;51.156;17.038;2023-02-18T07:24:55;3.88;;;1.13;;
52354;SDS011;38286;51.156;17.038;2023-02-18T07:27:20;3.25;;;0.88;;
52354;SDS011;38286;51.156;17.038;2023-02-18T07:29:46;2.92;;;0.93;;
52354;SDS011;38286;51.156;17.038;2023-02-18T07:32:12;3.05;;;0.88;;
52354;SDS011;38286;51.156;17.038;2023-02-18T07:34:39;2.25;;;0.60;;
52354;SDS011;38286;51.156;17.038;2023-02-18T07:37:05;4.70;;;0.90;;
52354;SDS011;38286;51.156;17.038;2023-02-18T07:39:34;3.05;;;0.95;;
52354;SDS011;38286;51.156;17.038;2023-02-18T07:42:01;4.63;;;0.85;;
52354;SDS011;38286;51.156;17.038;2023-02-18T07:44:27;2.40;;;0.90;;
52354;SDS011;38286;51.156;17.038;2023-02-18T07:46:53;3.45;;;0.63;;
52354;SDS011;38286;51.156;17.038;2023-02-18T07:49:19;2.53;;;1.00;;
52354;SDS011;38286;51.156;17.038;2023-02-18T07:51:48;2.42;;;0.90;;
52354;SDS011;38286;51.156;17.038;2023-02-18T07:54:14;2.60;;;0.90;;
52354;SDS011;38286;51.156;17.038;2023-02-18T07:56:40;2.30;;;0.80;;
52354;SDS011;38286;51.156;17.038;2023-02-18T07:59:07;1.75;;;0.70;;
52354;SDS011;38286;51.156;17.038;2023-02-18T08:01:33;4.90;;;1.10;;
52354;SDS011;38286;51.156;17.038;2023-02-18T08:03:59;4.00;;;0.77;;
52354;SDS011;38286;51.156;17.038;2023-02-18T08:06:27;4.35;;;0.98;;
52354;SDS011;38286;51.156;17.038;2023-02-18T08:08:55;3.85;;;0.80;;
52354;SDS011;38286;51.156;17.038;2023-02-18T08:11:21;3.55;;;0.73;;
52354;SDS011;38286;51.156;17.038;2023-02-18T08:13:47;1.08;;;0.70;;
52354;SDS011;38286;51.156;17.038;2023-02-18T08:16:14;2.83;;;0.82;;
52354;SDS011;38286;51.156;17.038;2023-02-18T08:18:40;4.68;;;0.90;;
52354;SDS011;38286;51.156;17.038;2023-02-18T08:21:06;2.22;;;0.70;;
52354;SDS011;38286;51.156;17.038;2023-02-18T08:23:31;1.92;;;0.52;;
52354;SDS011;38286;51.156;17.038;2023-02-18T08:25:57;4.25;;;1.25;;
52354;SDS011;38286;51.156;17.038;2023-02-18T08:28:23;2.42;;;0.60;;
52354;SDS011;38286;51.156;17.038;2023-02-18T08:30:49;2.63;;;0.90;;
52354;SDS011;38286;51.156;17.038;2023-02-18T08:33:17;2.90;;;0.77;;
52354;SDS011;38286;51.156;17.038;2023-02-18T08:35:43;3.90;;;0.93;;
52354;SDS011;38286;51.156;17.038;2023-02-18T08:38:09;3.83;;;0.70;;
52354;SDS011;38286;51.156;17.038;2023-02-18T08:40:35;6.78;;;0.82;;
52354;SDS011;38286;51.156;17.038;2023-02-18T08:43:00;2.80;;;0.70;;
52354;SDS011;38286;51.156;17.038;2023-02-18T08:45:26;1.48;;;0.60;;
52354;SDS011;38286;51.156;17.038;2023-02-18T08:47:52;2.15;;;0.70;;
52354;SDS011;38286;51.156;17.038;2023-02-18T08:50:17;2.75;;;0.73;;
52354;SDS011;38286;51.156;17.038;2023-02-18T08:52:45;2.42;;;0.60;;
52354;SDS011;38286;51.156;17.038;2023-02-18T08:55:11;1.23;;;0.70;;
52354;SDS011;38286;51.156;17.038;2023-02-18T08:57:38;2.65;;;0.60;;
52354;SDS011;38286;51.156;17.038;2023-02-18T09:00:04;3.35;;;1.10;;
52354;SDS011;38286;51.156;17.038;2023-02-18T09:02:30;30.52;;;10.20;;
52354;SDS011;38286;51.156;17.038;2023-02-18T09:04:56;11.10;;;4.40;;
52354;SDS011;38286;51.156;17.038;2023-02-18T09:07:22;7.30;;;3.42;;
52354;SDS011;38286;51.156;17.038;2023-02-18T09:09:47;12.45;;;5.75;;
52354;SDS011;38286;51.156;17.038;2023-02-18T09:12:13;7.40;;;1.55;;
52354;SDS011;38286;51.156;17.038;2023-02-18T09:14:38;2.58;;;1.50;;
52354;SDS011;38286;51.156;17.038;2023-02-18T09:17:05;3.13;;;0.80;;
52354;SDS011;38286;51.156;17.038;2023-02-18T09:19:31;5.25;;;1.45;;
52354;SDS011;38286;51.156;17.038;2023-02-18T09:21:56;3.05;;;1.05;;
52354;SDS011;38286;51.156;17.038;2023-02-18T09:24:22;12.80;;;6.50;;
52354;SDS011;38286;51.156;17.038;2023-02-18T09:26:49;3.85;;;1.10;;
52354;SDS011;38286;51.156;17.038;2023-02-18T09:29:15;5.03;;;1.60;;
52354;SDS011;38286;51.156;17.038;2023-02-18T09:31:41;4.13;;;2.03;;
52354;SDS011;38286;51.156;17.038;2023-02-18T09:34:07;3.35;;;2.03;;
52354;SDS011;38286;51.156;17.038;2023-02-18T09:36:33;3.47;;;1.15;;
52354;SDS011;38286;51.156;17.038;2023-02-18T09:38:58;2.58;;;1.20;;
52354;SDS011;38286;51.156;17.038;2023-02-18T09:41:41;5.50;;;1.65;;
52354;SDS011;38286;51.156;17.038;2023-02-18T09:49:22;5.35;;;2.63;;
52354;SDS011;38286;51.156;17.038;2023-02-18T09:51:51;6.90;;;2.85;;
52354;SDS011;38286;51.156;17.038;2023-02-18T09:54:18;6.95;;;2.28;;
52354;SDS011;38286;51.156;17.038;2023-02-18T09:56:44;37.95;;;13.68;;
52354;SDS011;38286;51.156;17.038;2023-02-18T09:59:18;9.80;;;4.28;;
52354;SDS011;38286;51.156;17.038;2023-02-18T10:01:46;12.50;;;4.47;;
52354;SDS011;38286;51.156;17.038;2023-02-18T10:04:19;5.32;;;1.73;;
52354;SDS011;38286;51.156;17.038;2023-02-18T10:07:18;3.72;;;1.67;;
52354;SDS011;38286;51.156;17.038;2023-02-18T10:09:47;9.10;;;4.18;;
52354;SDS011;38286;51.156;17.038;2023-02-18T10:14:46;1.88;;;0.70;;
52354;SDS011;38286;51.156;17.038;2023-02-18T10:17:14;8.00;;;2.85;;
52354;SDS011;38286;51.156;17.038;2023-02-18T10:19:41;3.95;;;2.20;;
52354;SDS011;38286;51.156;17.038;2023-02-18T10:22:08;3.88;;;1.08;;
52354;SDS011;38286;51.156;17.038;2023-02-18T10:24:57;4.13;;;1.45;;
52354;SDS011;38286;51.156;17.038;2023-02-18T10:27:27;4.07;;;1.02;;
52354;SDS011;38286;51.156;17.038;2023-02-18T10:29:57;2.05;;;0.90;;
52354;SDS011;38286;51.156;17.038;2023-02-18T10:32:32;3.67;;;1.10;;
52354;SDS011;38286;51.156;17.038;2023-02-18T10:37:50;4.80;;;1.20;;
52354;SDS011;38286;51.156;17.038;2023-02-18T10:51:49;6.30;;;2.17;;
52354;SDS011;38286;51.156;17.038;2023-02-18T10:54:16;4.60;;;1.13;;
52354;SDS011;38286;51.156;17.038;2023-02-18T10:56:46;3.72;;;1.67;;
52354;SDS011;38286;51.156;17.038;2023-02-18T10:59:14;5.90;;;1.70;;
52354;SDS011;38286;51.156;17.038;2023-02-18T11:01:53;5.07;;;1.10;;
52354;SDS011;38286;51.156;17.038;2023-02-18T11:04:21;3.15;;;1.38;;
52354;SDS011;38286;51.156;17.038;2023-02-18T11:06:50;5.35;;;1.90;;
52354;SDS011;38286;51.156;17.038;2023-02-18T11:12:02;6.72;;;1.73;;
52354;SDS011;38286;51.156;17.038;2023-02-18T11:14:40;9.40;;;3.45;;
52354;SDS011;38286;51.156;17.038;2023-02-18T11:17:53;7.68;;;2.33;;
52354;SDS011;38286;51.156;17.038;2023-02-18T11:20:00;6.28;;;1.40;;
52354;SDS011;38286;51.156;17.038;2023-02-18T11:22:29;6.38;;;1.35;;
52354;SDS011;38286;51.156;17.038;2023-02-18T11:25:01;5.82;;;1.10;;
52354;SDS011;38286;51.156;17.038;2023-02-18T11:27:41;4.05;;;1.73;;
52354;SDS011;38286;51.156;17.038;2023-02-18T11:30:21;8.45;;;1.58;;
52354;SDS011;38286;51.156;17.038;2023-02-18T11:32:55;2.40;;;1.63;;
52354;SDS011;38286;51.156;17.038;2023-02-18T11:35:26;4.40;;;1.88;;
52354;SDS011;38286;51.156;17.038;2023-02-18T11:37:54;5.75;;;2.13;;
52354;SDS011;38286;51.156;17.038;2023-02-18T11:40:24;5.88;;;1.73;;
52354;SDS011;38286;51.156;17.038;2023-02-18T11:43:01;3.63;;;1.70;;
52354;SDS011;38286;51.156;17.038;2023-02-18T11:45:30;4.75;;;2.53;;
52354;SDS011;38286;51.156;17.038;2023-02-18T11:48:01;3.83;;;1.92;;
52354;SDS011;38286;51.156;17.038;2023-02-18T11:50:40;10.15;;;2.55;;
52354;SDS011;38286;51.156;17.038;2023-02-18T11:53:29;7.90;;;2.40;;
52354;SDS011;38286;51.156;17.038;2023-02-18T11:55:57;6.72;;;2.30;;
52354;SDS011;38286;51.156;17.038;2023-02-18T11:58:31;12.73;;;2.95;;
52354;SDS011;38286;51.156;17.038;2023-02-18T12:01:03;8.95;;;2.28;;
52354;SDS011;38286;51.156;17.038;2023-02-18T12:03:37;7.35;;;2.45;;
52354;SDS011;38286;51.156;17.038;2023-02-18T12:06:14;8.38;;;3.08;;
52354;SDS011;38286;51.156;17.038;2023-02-18T12:09:00;6.82;;;2.55;;
52354;SDS011;38286;51.156;17.038;2023-02-18T12:11:39;7.53;;;2.85;;
52354;SDS011;38286;51.156;17.038;2023-02-18T12:14:24;6.85;;;2.50;;
52354;SDS011;38286;51.156;17.038;2023-02-18T12:17:02;7.97;;;2.70;;
52354;SDS011;38286;51.156;17.038;2023-02-18T12:27:28;9.57;;;3.55;;
52354;SDS011;38286;51.156;17.038;2023-02-18T12:36:03;10.05;;;4.18;;
52354;SDS011;38286;51.156;17.038;2023-02-18T12:38:53;9.73;;;3.92;;
52354;SDS011;38286;51.156;17.038;2023-02-18T12:47:17;13.32;;;4.10;;
52354;SDS011;38286;51.156;17.038;2023-02-18T12:50:02;7.70;;;3.70;;
52354;SDS011;38286;51.156;17.038;2023-02-18T13:00:47;12.15;;;5.00;;
52354;SDS011;38286;51.156;17.038;2023-02-18T13:08:34;16.30;;;6.95;;
52354;SDS011;38286;51.156;17.038;2023-02-18T13:13:38;13.85;;;6.72;;
52354;SDS011;38286;51.156;17.038;2023-02-18T13:16:14;15.15;;;6.90;;
52354;SDS011;38286;51.156;17.038;2023-02-18T13:18:44;16.55;;;7.70;;
52354;SDS011;38286;51.156;17.038;2023-02-18T13:21:14;17.67;;;8.10;;
52354;SDS011;38286;51.156;17.038;2023-02-18T13:26:35;19.02;;;7.72;;
52354;SDS011;38286;51.156;17.038;2023-02-18T13:29:09;16.42;;;7.28;;
52354;SDS011;38286;51.156;17.038;2023-02-18T13:31:50;17.75;;;8.55;;
52354;SDS011;38286;51.156;17.038;2023-02-18T13:37:15;23.60;;;8.82;;
52354;SDS011;38286;51.156;17.038;2023-02-18T13:39:47;18.05;;;8.80;;
52354;SDS011;38286;51.156;17.038;2023-02-18T13:45:01;20.98;;;9.77;;
52354;SDS011;38286;51.156;17.038;2023-02-18T13:47:34;25.23;;;10.32;;
52354;SDS011;38286;51.156;17.038;2023-02-18T13:52:50;21.77;;;9.45;;
52354;SDS011;38286;51.156;17.038;2023-02-18T13:55:17;20.92;;;10.02;;
52354;SDS011;38286;51.156;17.038;2023-02-18T13:57:46;24.45;;;10.82;;
52354;SDS011;38286;51.156;17.038;2023-02-18T14:00:20;25.08;;;11.30;;
52354;SDS011;38286;51.156;17.038;2023-02-18T14:02:54;23.45;;;10.02;;
52354;SDS011;38286;51.156;17.038;2023-02-18T14:05:25;17.95;;;8.82;;
52354;SDS011;38286;51.156;17.038;2023-02-18T14:08:07;28.60;;;11.73;;
52354;SDS011;38286;51.156;17.038;2023-02-18T14:10:37;22.77;;;11.77;;
52354;SDS011;38286;51.156;17.038;2023-02-18T14:13:19;17.58;;;8.80;;
52354;SDS011;38286;51.156;17.038;2023-02-18T14:18:22;20.75;;;8.23;;
52354;SDS011;38286;51.156;17.038;2023-02-18T14:20:49;19.92;;;7.75;;
52354;SDS011;38286;51.156;17.038;2023-02-18T14:25:42;16.27;;;7.75;;
52354;SDS011;38286;51.156;17.038;2023-02-18T14:33:36;20.73;;;9.07;;
52354;SDS011;38286;51.156;17.038;2023-02-18T14:36:11;18.70;;;7.38;;
52354;SDS011;38286;51.156;17.038;2023-02-18T14:39:05;15.38;;;7.05;;
52354;SDS011;38286;51.156;17.038;2023-02-18T14:41:57;15.05;;;6.85;;
52354;SDS011;38286;51.156;17.038;2023-02-18T14:54:59;17.38;;;7.30;;
52354;SDS011;38286;51.156;17.038;2023-02-18T14:57:32;17.85;;;8.18;;
52354;SDS011;38286;51.156;17.038;2023-02-18T15:00:01;15.20;;;7.40;;
52354;SDS011;38286;51.156;17.038;2023-02-18T15:02:28;18.73;;;7.93;;
52354;SDS011;38286;51.156;17.038;2023-02-18T15:05:39;14.77;;;7.03;;
52354;SDS011;38286;51.156;17.038;2023-02-18T15:07:57;16.92;;;7.00;;
52354;SDS011;38286;51.156;17.038;2023-02-18T15:11:05;19.88;;;7.18;;
52354;SDS011;38286;51.156;17.038;2023-02-18T15:13:15;14.32;;;7.25;;
52354;SDS011;38286;51.156;17.038;2023-02-18T15:15:44;16.65;;;7.35;;
52354;SDS011;38286;51.156;17.038;2023-02-18T15:18:25;15.85;;;7.40;;
52354;SDS011;38286;51.156;17.038;2023-02-18T15:20:55;14.18;;;7.47;;
52354;SDS011;38286;51.156;17.038;2023-02-18T15:23:21;16.67;;;6.78;;
52354;SDS011;38286;51.156;17.038;2023-02-18T15:25:50;11.18;;;5.70;;
52354;SDS011;38286;51.156;17.038;2023-02-18T15:28:21;13.02;;;5.55;;
52354;SDS011;38286;51.156;17.038;2023-02-18T15:30:52;9.18;;;4.50;;
52354;SDS011;38286;51.156;17.038;2023-02-18T15:33:18;9.35;;;3.63;;
52354;SDS011;38286;51.156;17.038;2023-02-18T15:35:45;6.20;;;2.90;;
52354;SDS011;38286;51.156;17.038;2023-02-18T15:38:14;4.38;;;2.45;;
52354;SDS011;38286;51.156;17.038;2023-02-18T15:40:42;3.13;;;1.90;;
52354;SDS011;38286;51.156;17.038;2023-02-18T15:43:11;3.05;;;2.15;;
52354;SDS011;38286;51.156;17.038;2023-02-18T15:45:43;3.65;;;1.80;;
52354;SDS011;38286;51.156;17.038;2023-02-18T15:48:29;3.67;;;1.80;;
52354;SDS011;38286;51.156;17.038;2023-02-18T15:51:10;3.08;;;1.90;;
52354;SDS011;38286;51.156;17.038;2023-02-18T15:53:40;2.72;;;1.90;;
52354;SDS011;38286;51.156;17.038;2023-02-18T15:56:11;3.40;;;1.77;;
52354;SDS011;38286;51.156;17.038;2023-02-18T15:58:41;2.70;;;1.80;;
52354;SDS011;38286;51.156;17.038;2023-02-18T16:01:22;2.70;;;1.63;;
52354;SDS011;38286;51.156;17.038;2023-02-18T16:03:50;2.83;;;1.70;;
52354;SDS011;38286;51.156;17.038;2023-02-18T16:06:18;5.93;;;1.50;;
52354;SDS011;38286;51.156;17.038;2023-02-18T16:11:57;3.50;;;1.88;;
52354;SDS011;38286;51.156;17.038;2023-02-18T16:14:33;2.83;;;1.60;;
52354;SDS011;38286;51.156;17.038;2023-02-18T16:22:44;3.13;;;1.42;;
52354;SDS011;38286;51.156;17.038;2023-02-18T16:28:04;2.08;;;1.55;;
52354;SDS011;38286;51.156;17.038;2023-02-18T16:30:32;1.90;;;1.42;;
52354;SDS011;38286;51.156;17.038;2023-02-18T16:33:00;2.63;;;1.35;;
52354;SDS011;38286;51.156;17.038;2023-02-18T16:35:26;1.83;;;1.35;;
52354;SDS011;38286;51.156;17.038;2023-02-18T16:37:54;2.92;;;1.40;;
52354;SDS011;38286;51.156;17.038;2023-02-18T16:40:34;1.77;;;1.40;;
52354;SDS011;38286;51.156;17.038;2023-02-18T16:43:05;2.63;;;1.48;;
52354;SDS011;38286;51.156;17.038;2023-02-18T16:50:47;2.08;;;1.40;;
52354;SDS011;38286;51.156;17.038;2023-02-18T16:53:14;2.30;;;1.10;;
52354;SDS011;38286;51.156;17.038;2023-02-18T16:55:40;3.83;;;1.10;;
52354;SDS011;38286;51.156;17.038;2023-02-18T16:58:05;2.65;;;1.02;;
52354;SDS011;38286;51.156;17.038;2023-02-18T17:00:31;1.50;;;0.95;;
52354;SDS011;38286;51.156;17.038;2023-02-18T17:02:57;2.22;;;1.33;;
52354;SDS011;38286;51.156;17.038;2023-02-18T17:05:25;2.40;;;1.10;;
52354;SDS011;38286;51.156;17.038;2023-02-18T17:07:53;1.17;;;0.98;;
52354;SDS011;38286;51.156;17.038;2023-02-18T17:10:19;0.85;;;0.80;;
52354;SDS011;38286;51.156;17.038;2023-02-18T17:12:45;10.40;;;1.50;;
52354;SDS011;38286;51.156;17.038;2023-02-18T17:15:20;2.13;;;1.15;;
52354;SDS011;38286;51.156;17.038;2023-02-18T17:17:51;1.77;;;1.05;;
52354;SDS011;38286;51.156;17.038;2023-02-18T17:20:17;1.67;;;1.10;;